sensor_id;sensor_type;location;lat;lon;timestamp;P1;durP1;ratioP1;P2;durP2;ratioP2
4432;SDS011;2229;48.708;9.706;2023-08-06T00:02:19;2.70;;;1.37;;
4432;SDS011;2229;48.708;9.706;2023-08-06T00:04:47;2.80;;;1.30;;
4432;SDS011;2229;48.708;9.706;2023-08-06T00:07:15;5.40;;;2.10;;
4432;SDS011;2229;48.708;9.706;2023-08-06T00:09:42;2.23;;;1.20;;
4432;SDS011;2229;48.708;9.706;2023-08-06T00:12:09;2.10;;;0.90;;
4432;SDS011;2229;48.708;9.706;2023-08-06T00:14:36;2.93;;;1.67;;
4432;SDS011;2229;48.708;9.706;2023-08-06T00:17:03;4.50;;;1.33;;
4432;SDS011;2229;48.708;9.706;2023-08-06T00:19:31;4.23;;;2.17;;
4432;SDS011;2229;48.708;9.706;2023-08-06T00:22:00;2.30;;;1.07;;
4432;SDS011;2229;48.708;9.706;2023-08-06T00:24:28;2.37;;;1.67;;
4432;SDS011;2229;48.708;9.706;2023-08-06T00:26:56;2.93;;;1.47;;
4432;SDS011;2229;48.708;9.706;2023-08-06T00:29:24;2.00;;;1.47;;
4432;SDS011;2229;48.708;9.706;2023-08-06T00:31:52;3.67;;;1.50;;
4432;SDS011;2229;48.708;9.706;2023-08-06T00:34:19;3.80;;;1.67;;
4432;SDS011;2229;48.708;9.706;2023-08-06T00:36:46;2.10;;;1.00;;
4432;SDS011;2229;48.708;9.706;2023-08-06T00:39:17;6.60;;;1.73;;
4432;SDS011;2229;48.708;9.706;2023-08-06T00:41:44;2.67;;;1.40;;
4432;SDS011;2229;48.708;9.706;2023-08-06T00:44:12;2.20;;;1.23;;
4432;SDS011;2229;48.708;9.706;2023-08-06T00:46:39;2.53;;;1.30;;
4432;SDS011;2229;48.708;9.706;2023-08-06T00:49:06;3.03;;;1.30;;
4432;SDS011;2229;48.708;9.706;2023-08-06T00:51:34;2.87;;;1.43;;
4432;SDS011;2229;48.708;9.706;2023-08-06T00:54:02;2.57;;;1.47;;
4432;SDS011;2229;48.708;9.706;2023-08-06T00:56:36;2.10;;;1.00;;
4432;SDS011;2229;48.708;9.706;2023-08-06T00:59:03;3.70;;;1.77;;
4432;SDS011;2229;48.708;9.706;2023-08-06T01:01:32;2.40;;;1.37;;
4432;SDS011;2229;48.708;9.706;2023-08-06T01:04:00;3.23;;;1.80;;
4432;SDS011;2229;48.708;9.706;2023-08-06T01:06:30;2.40;;;1.20;;
4432;SDS011;2229;48.708;9.706;2023-08-06T01:09:07;1.67;;;1.10;;
4432;SDS011;2229;48.708;9.706;2023-08-06T01:11:51;2.27;;;1.37;;
4432;SDS011;2229;48.708;9.706;2023-08-06T01:14:26;2.80;;;1.27;;
4432;SDS011;2229;48.708;9.706;2023-08-06T01:16:57;2.75;;;1.10;;
4432;SDS011;2229;48.708;9.706;2023-08-06T01:19:25;13.23;;;1.47;;
4432;SDS011;2229;48.708;9.706;2023-08-06T01:21:54;4.27;;;1.80;;
4432;SDS011;2229;48.708;9.706;2023-08-06T01:24:21;2.43;;;1.10;;
4432;SDS011;2229;48.708;9.706;2023-08-06T01:26:51;4.87;;;1.23;;
4432;SDS011;2229;48.708;9.706;2023-08-06T01:29:28;2.33;;;1.40;;
4432;SDS011;2229;48.708;9.706;2023-08-06T01:32:00;2.17;;;1.33;;
4432;SDS011;2229;48.708;9.706;2023-08-06T01:34:30;3.50;;;1.60;;
4432;SDS011;2229;48.708;9.706;2023-08-06T01:37:02;2.73;;;1.37;;
4432;SDS011;2229;48.708;9.706;2023-08-06T01:39:31;2.27;;;1.47;;
4432;SDS011;2229;48.708;9.706;2023-08-06T01:42:03;2.72;;;1.20;;
4432;SDS011;2229;48.708;9.706;2023-08-06T01:44:30;3.55;;;1.50;;
4432;SDS011;2229;48.708;9.706;2023-08-06T01:46:59;3.20;;;1.83;;
4432;SDS011;2229;48.708;9.706;2023-08-06T01:49:26;3.10;;;1.60;;
4432;SDS011;2229;48.708;9.706;2023-08-06T01:51:54;3.13;;;1.75;;
4432;SDS011;2229;48.708;9.706;2023-08-06T01:54:23;1.67;;;1.17;;
4432;SDS011;2229;48.708;9.706;2023-08-06T01:56:50;2.13;;;1.00;;
4432;SDS011;2229;48.708;9.706;2023-08-06T01:59:17;3.50;;;1.90;;
4432;SDS011;2229;48.708;9.706;2023-08-06T02:01:45;4.37;;;1.60;;
4432;SDS011;2229;48.708;9.706;2023-08-06T02:04:15;2.17;;;1.30;;
4432;SDS011;2229;48.708;9.706;2023-08-06T02:06:44;2.83;;;1.50;;
4432;SDS011;2229;48.708;9.706;2023-08-06T02:09:12;3.50;;;1.50;;
4432;SDS011;2229;48.708;9.706;2023-08-06T02:11:41;2.27;;;1.17;;
4432;SDS011;2229;48.708;9.706;2023-08-06T02:14:08;4.83;;;1.53;;
4432;SDS011;2229;48.708;9.706;2023-08-06T02:16:35;2.43;;;1.40;;
4432;SDS011;2229;48.708;9.706;2023-08-06T02:19:02;3.10;;;1.43;;
4432;SDS011;2229;48.708;9.706;2023-08-06T02:21:30;2.53;;;1.30;;
4432;SDS011;2229;48.708;9.706;2023-08-06T02:23:57;2.33;;;1.30;;
4432;SDS011;2229;48.708;9.706;2023-08-06T02:26:24;3.67;;;2.07;;
4432;SDS011;2229;48.708;9.706;2023-08-06T02:28:53;8.37;;;2.60;;
4432;SDS011;2229;48.708;9.706;2023-08-06T02:31:20;3.50;;;1.33;;
4432;SDS011;2229;48.708;9.706;2023-08-06T02:33:47;2.65;;;1.40;;
4432;SDS011;2229;48.708;9.706;2023-08-06T02:36:15;2.53;;;1.33;;
4432;SDS011;2229;48.708;9.706;2023-08-06T02:38:42;4.40;;;2.20;;
4432;SDS011;2229;48.708;9.706;2023-08-06T02:41:09;4.23;;;1.70;;
4432;SDS011;2229;48.708;9.706;2023-08-06T02:43:36;1.67;;;1.10;;
4432;SDS011;2229;48.708;9.706;2023-08-06T02:46:06;2.93;;;1.50;;
4432;SDS011;2229;48.708;9.706;2023-08-06T02:48:33;3.37;;;1.20;;
4432;SDS011;2229;48.708;9.706;2023-08-06T02:51:01;1.93;;;1.10;;
4432;SDS011;2229;48.708;9.706;2023-08-06T02:53:30;1.77;;;0.87;;
4432;SDS011;2229;48.708;9.706;2023-08-06T02:56:00;1.80;;;1.20;;
4432;SDS011;2229;48.708;9.706;2023-08-06T02:58:37;7.93;;;1.10;;
4432;SDS011;2229;48.708;9.706;2023-08-06T03:01:17;2.77;;;1.20;;
4432;SDS011;2229;48.708;9.706;2023-08-06T03:03:51;2.50;;;1.00;;
4432;SDS011;2229;48.708;9.706;2023-08-06T03:06:24;2.10;;;1.10;;
4432;SDS011;2229;48.708;9.706;2023-08-06T03:08:54;3.40;;;1.40;;
4432;SDS011;2229;48.708;9.706;2023-08-06T03:11:21;2.20;;;1.15;;
4432;SDS011;2229;48.708;9.706;2023-08-06T03:13:54;5.47;;;1.60;;
4432;SDS011;2229;48.708;9.706;2023-08-06T03:16:22;3.50;;;1.43;;
4432;SDS011;2229;48.708;9.706;2023-08-06T03:18:49;2.00;;;0.80;;
4432;SDS011;2229;48.708;9.706;2023-08-06T03:21:17;3.47;;;1.00;;
4432;SDS011;2229;48.708;9.706;2023-08-06T03:23:46;1.77;;;0.83;;
4432;SDS011;2229;48.708;9.706;2023-08-06T03:26:14;2.75;;;1.23;;
4432;SDS011;2229;48.708;9.706;2023-08-06T03:28:41;1.67;;;1.33;;
4432;SDS011;2229;48.708;9.706;2023-08-06T03:31:09;1.67;;;0.77;;
4432;SDS011;2229;48.708;9.706;2023-08-06T03:33:42;2.85;;;1.38;;
4432;SDS011;2229;48.708;9.706;2023-08-06T03:36:14;2.33;;;1.10;;
4432;SDS011;2229;48.708;9.706;2023-08-06T03:38:42;2.27;;;1.40;;
4432;SDS011;2229;48.708;9.706;2023-08-06T03:41:12;2.50;;;1.20;;
4432;SDS011;2229;48.708;9.706;2023-08-06T03:43:39;3.60;;;1.20;;
4432;SDS011;2229;48.708;9.706;2023-08-06T03:46:10;2.17;;;1.23;;
4432;SDS011;2229;48.708;9.706;2023-08-06T03:48:38;1.83;;;0.93;;
4432;SDS011;2229;48.708;9.706;2023-08-06T03:51:06;3.43;;;1.90;;
4432;SDS011;2229;48.708;9.706;2023-08-06T03:53:34;1.92;;;1.45;;
4432;SDS011;2229;48.708;9.706;2023-08-06T03:56:02;1.95;;;0.80;;
4432;SDS011;2229;48.708;9.706;2023-08-06T03:58:30;1.50;;;0.80;;
4432;SDS011;2229;48.708;9.706;2023-08-06T04:00:58;2.70;;;1.37;;
4432;SDS011;2229;48.708;9.706;2023-08-06T04:03:28;1.77;;;0.97;;
4432;SDS011;2229;48.708;9.706;2023-08-06T04:05:55;2.60;;;1.47;;
4432;SDS011;2229;48.708;9.706;2023-08-06T04:08:23;2.43;;;1.20;;
4432;SDS011;2229;48.708;9.706;2023-08-06T04:10:51;2.50;;;1.20;;
4432;SDS011;2229;48.708;9.706;2023-08-06T04:13:19;2.77;;;1.30;;
4432;SDS011;2229;48.708;9.706;2023-08-06T04:15:46;1.70;;;1.03;;
4432;SDS011;2229;48.708;9.706;2023-08-06T04:18:14;2.23;;;1.00;;
4432;SDS011;2229;48.708;9.706;2023-08-06T04:20:42;1.77;;;1.07;;
4432;SDS011;2229;48.708;9.706;2023-08-06T04:23:10;2.07;;;1.10;;
4432;SDS011;2229;48.708;9.706;2023-08-06T04:25:40;2.10;;;1.17;;
4432;SDS011;2229;48.708;9.706;2023-08-06T04:28:07;3.40;;;1.30;;
4432;SDS011;2229;48.708;9.706;2023-08-06T04:30:34;1.67;;;0.70;;
4432;SDS011;2229;48.708;9.706;2023-08-06T04:33:03;3.17;;;1.30;;
4432;SDS011;2229;48.708;9.706;2023-08-06T04:35:32;3.90;;;1.77;;
4432;SDS011;2229;48.708;9.706;2023-08-06T04:37:59;2.58;;;1.15;;
4432;SDS011;2229;48.708;9.706;2023-08-06T04:40:26;2.30;;;1.20;;
4432;SDS011;2229;48.708;9.706;2023-08-06T04:42:55;2.50;;;1.23;;
4432;SDS011;2229;48.708;9.706;2023-08-06T04:45:22;2.03;;;1.03;;
4432;SDS011;2229;48.708;9.706;2023-08-06T04:47:49;3.43;;;0.77;;
4432;SDS011;2229;48.708;9.706;2023-08-06T04:50:16;2.50;;;1.27;;
4432;SDS011;2229;48.708;9.706;2023-08-06T04:52:44;2.60;;;1.10;;
4432;SDS011;2229;48.708;9.706;2023-08-06T04:55:11;1.90;;;0.77;;
4432;SDS011;2229;48.708;9.706;2023-08-06T04:57:38;2.40;;;1.10;;
4432;SDS011;2229;48.708;9.706;2023-08-06T05:00:07;2.00;;;1.10;;
4432;SDS011;2229;48.708;9.706;2023-08-06T05:02:34;2.70;;;1.17;;
4432;SDS011;2229;48.708;9.706;2023-08-06T05:05:04;5.43;;;0.85;;
4432;SDS011;2229;48.708;9.706;2023-08-06T05:07:31;1.67;;;0.80;;
4432;SDS011;2229;48.708;9.706;2023-08-06T05:09:59;1.93;;;1.03;;
4432;SDS011;2229;48.708;9.706;2023-08-06T05:12:26;1.40;;;0.63;;
4432;SDS011;2229;48.708;9.706;2023-08-06T05:14:53;1.77;;;0.83;;
4432;SDS011;2229;48.708;9.706;2023-08-06T05:17:22;2.30;;;0.90;;
4432;SDS011;2229;48.708;9.706;2023-08-06T05:19:50;1.98;;;0.82;;
4432;SDS011;2229;48.708;9.706;2023-08-06T05:22:18;2.23;;;0.80;;
4432;SDS011;2229;48.708;9.706;2023-08-06T05:24:45;2.03;;;0.80;;
4432;SDS011;2229;48.708;9.706;2023-08-06T05:27:12;2.03;;;0.70;;
4432;SDS011;2229;48.708;9.706;2023-08-06T05:29:39;2.00;;;0.73;;
4432;SDS011;2229;48.708;9.706;2023-08-06T05:32:07;1.47;;;0.73;;
4432;SDS011;2229;48.708;9.706;2023-08-06T05:34:36;1.33;;;0.60;;
4432;SDS011;2229;48.708;9.706;2023-08-06T05:37:03;1.50;;;0.70;;
4432;SDS011;2229;48.708;9.706;2023-08-06T05:39:31;1.40;;;0.60;;
4432;SDS011;2229;48.708;9.706;2023-08-06T05:41:58;1.50;;;0.60;;
4432;SDS011;2229;48.708;9.706;2023-08-06T05:44:25;1.37;;;0.60;;
4432;SDS011;2229;48.708;9.706;2023-08-06T05:46:52;1.30;;;0.60;;
4432;SDS011;2229;48.708;9.706;2023-08-06T05:49:19;2.40;;;0.80;;
4432;SDS011;2229;48.708;9.706;2023-08-06T05:51:49;2.13;;;1.10;;
4432;SDS011;2229;48.708;9.706;2023-08-06T05:54:18;1.67;;;0.50;;
4432;SDS011;2229;48.708;9.706;2023-08-06T05:56:45;3.20;;;1.90;;
4432;SDS011;2229;48.708;9.706;2023-08-06T05:59:13;1.17;;;0.50;;
4432;SDS011;2229;48.708;9.706;2023-08-06T06:01:40;1.40;;;0.50;;
4432;SDS011;2229;48.708;9.706;2023-08-06T06:04:07;2.13;;;0.70;;
4432;SDS011;2229;48.708;9.706;2023-08-06T06:06:34;1.30;;;0.60;;
4432;SDS011;2229;48.708;9.706;2023-08-06T06:09:03;1.77;;;0.60;;
4432;SDS011;2229;48.708;9.706;2023-08-06T06:11:30;1.30;;;0.50;;
4432;SDS011;2229;48.708;9.706;2023-08-06T06:13:57;1.10;;;0.50;;
4432;SDS011;2229;48.708;9.706;2023-08-06T06:16:26;1.05;;;0.50;;
4432;SDS011;2229;48.708;9.706;2023-08-06T06:18:53;2.80;;;0.77;;
4432;SDS011;2229;48.708;9.706;2023-08-06T06:21:22;5.20;;;1.27;;
4432;SDS011;2229;48.708;9.706;2023-08-06T06:23:50;1.40;;;0.68;;
4432;SDS011;2229;48.708;9.706;2023-08-06T06:26:19;7.70;;;0.93;;
4432;SDS011;2229;48.708;9.706;2023-08-06T06:28:46;1.63;;;0.70;;
4432;SDS011;2229;48.708;9.706;2023-08-06T06:31:13;1.30;;;0.50;;
4432;SDS011;2229;48.708;9.706;2023-08-06T06:33:41;5.37;;;1.17;;
4432;SDS011;2229;48.708;9.706;2023-08-06T06:36:08;4.93;;;0.70;;
4432;SDS011;2229;48.708;9.706;2023-08-06T06:38:36;5.03;;;0.67;;
4432;SDS011;2229;48.708;9.706;2023-08-06T06:41:03;1.50;;;0.50;;
4432;SDS011;2229;48.708;9.706;2023-08-06T06:43:31;1.20;;;0.53;;
4432;SDS011;2229;48.708;9.706;2023-08-06T06:45:59;1.40;;;0.50;;
4432;SDS011;2229;48.708;9.706;2023-08-06T06:48:26;1.60;;;0.63;;
4432;SDS011;2229;48.708;9.706;2023-08-06T06:50:54;1.50;;;0.50;;
4432;SDS011;2229;48.708;9.706;2023-08-06T06:53:23;2.07;;;0.77;;
4432;SDS011;2229;48.708;9.706;2023-08-06T06:55:52;1.43;;;0.57;;
4432;SDS011;2229;48.708;9.706;2023-08-06T06:58:20;1.40;;;0.63;;
4432;SDS011;2229;48.708;9.706;2023-08-06T07:00:49;1.90;;;0.93;;
4432;SDS011;2229;48.708;9.706;2023-08-06T07:03:17;1.08;;;0.50;;
4432;SDS011;2229;48.708;9.706;2023-08-06T07:05:46;1.20;;;0.53;;
4432;SDS011;2229;48.708;9.706;2023-08-06T07:08:14;2.30;;;0.47;;
4432;SDS011;2229;48.708;9.706;2023-08-06T07:10:42;1.20;;;0.43;;
4432;SDS011;2229;48.708;9.706;2023-08-06T07:13:09;1.25;;;0.50;;
4432;SDS011;2229;48.708;9.706;2023-08-06T07:15:36;1.23;;;0.50;;
4432;SDS011;2229;48.708;9.706;2023-08-06T07:18:05;3.20;;;1.33;;
4432;SDS011;2229;48.708;9.706;2023-08-06T07:20:32;1.25;;;0.50;;
4432;SDS011;2229;48.708;9.706;2023-08-06T07:23:00;1.40;;;0.50;;
4432;SDS011;2229;48.708;9.706;2023-08-06T07:25:27;1.52;;;0.50;;
4432;SDS011;2229;48.708;9.706;2023-08-06T07:27:54;1.10;;;0.37;;
4432;SDS011;2229;48.708;9.706;2023-08-06T07:30:26;1.20;;;0.40;;
4432;SDS011;2229;48.708;9.706;2023-08-06T07:32:53;2.03;;;0.60;;
4432;SDS011;2229;48.708;9.706;2023-08-06T07:35:23;1.30;;;0.50;;
4432;SDS011;2229;48.708;9.706;2023-08-06T07:37:50;1.40;;;0.50;;
4432;SDS011;2229;48.708;9.706;2023-08-06T07:40:20;1.10;;;0.40;;
4432;SDS011;2229;48.708;9.706;2023-08-06T07:42:47;3.83;;;0.63;;
4432;SDS011;2229;48.708;9.706;2023-08-06T07:45:14;1.10;;;0.43;;
4432;SDS011;2229;48.708;9.706;2023-08-06T07:47:41;2.37;;;0.60;;
4432;SDS011;2229;48.708;9.706;2023-08-06T07:50:09;1.40;;;0.50;;
4432;SDS011;2229;48.708;9.706;2023-08-06T07:52:37;1.60;;;0.40;;
4432;SDS011;2229;48.708;9.706;2023-08-06T07:55:05;1.20;;;0.50;;
4432;SDS011;2229;48.708;9.706;2023-08-06T07:57:32;1.10;;;0.40;;
4432;SDS011;2229;48.708;9.706;2023-08-06T08:00:01;4.63;;;0.50;;
4432;SDS011;2229;48.708;9.706;2023-08-06T08:02:38;2.70;;;0.40;;
4432;SDS011;2229;48.708;9.706;2023-08-06T08:05:05;2.70;;;0.50;;
4432;SDS011;2229;48.708;9.706;2023-08-06T08:07:33;1.77;;;0.53;;
4432;SDS011;2229;48.708;9.706;2023-08-06T08:10:02;1.80;;;0.50;;
4432;SDS011;2229;48.708;9.706;2023-08-06T08:12:30;1.20;;;0.40;;
4432;SDS011;2229;48.708;9.706;2023-08-06T08:14:57;1.20;;;0.50;;
4432;SDS011;2229;48.708;9.706;2023-08-06T08:17:26;1.10;;;0.40;;
4432;SDS011;2229;48.708;9.706;2023-08-06T08:19:53;1.00;;;0.40;;
4432;SDS011;2229;48.708;9.706;2023-08-06T08:22:22;1.10;;;0.50;;
4432;SDS011;2229;48.708;9.706;2023-08-06T08:24:50;1.10;;;0.40;;
4432;SDS011;2229;48.708;9.706;2023-08-06T08:27:18;1.33;;;0.40;;
4432;SDS011;2229;48.708;9.706;2023-08-06T08:29:46;2.35;;;0.40;;
4432;SDS011;2229;48.708;9.706;2023-08-06T08:32:14;1.93;;;0.50;;
4432;SDS011;2229;48.708;9.706;2023-08-06T08:34:41;1.20;;;0.40;;
4432;SDS011;2229;48.708;9.706;2023-08-06T08:37:09;1.10;;;0.40;;
4432;SDS011;2229;48.708;9.706;2023-08-06T08:39:38;1.10;;;0.40;;
4432;SDS011;2229;48.708;9.706;2023-08-06T08:42:06;1.10;;;0.40;;
4432;SDS011;2229;48.708;9.706;2023-08-06T08:44:34;1.33;;;0.60;;
4432;SDS011;2229;48.708;9.706;2023-08-06T08:47:05;1.10;;;0.40;;
4432;SDS011;2229;48.708;9.706;2023-08-06T08:49:34;1.83;;;0.50;;
4432;SDS011;2229;48.708;9.706;2023-08-06T08:52:03;1.10;;;0.40;;
4432;SDS011;2229;48.708;9.706;2023-08-06T08:54:32;1.00;;;0.30;;
4432;SDS011;2229;48.708;9.706;2023-08-06T08:57:01;1.20;;;0.47;;
4432;SDS011;2229;48.708;9.706;2023-08-06T08:59:29;1.40;;;0.40;;
4432;SDS011;2229;48.708;9.706;2023-08-06T09:01:58;1.20;;;0.50;;
4432;SDS011;2229;48.708;9.706;2023-08-06T09:04:27;1.10;;;0.40;;
4432;SDS011;2229;48.708;9.706;2023-08-06T09:06:57;1.00;;;0.30;;
4432;SDS011;2229;48.708;9.706;2023-08-06T09:09:26;1.00;;;0.40;;
4432;SDS011;2229;48.708;9.706;2023-08-06T09:12:00;1.00;;;0.40;;
4432;SDS011;2229;48.708;9.706;2023-08-06T09:14:28;1.20;;;0.40;;
4432;SDS011;2229;48.708;9.706;2023-08-06T09:16:57;1.90;;;0.80;;
4432;SDS011;2229;48.708;9.706;2023-08-06T09:19:25;1.20;;;0.40;;
4432;SDS011;2229;48.708;9.706;2023-08-06T09:21:54;1.10;;;0.40;;
4432;SDS011;2229;48.708;9.706;2023-08-06T09:24:22;2.63;;;0.60;;
4432;SDS011;2229;48.708;9.706;2023-08-06T09:26:51;1.00;;;0.30;;
4432;SDS011;2229;48.708;9.706;2023-08-06T09:29:19;1.20;;;0.40;;
4432;SDS011;2229;48.708;9.706;2023-08-06T09:31:48;1.00;;;0.30;;
4432;SDS011;2229;48.708;9.706;2023-08-06T09:34:18;2.80;;;0.40;;
4432;SDS011;2229;48.708;9.706;2023-08-06T09:36:48;1.53;;;0.53;;
4432;SDS011;2229;48.708;9.706;2023-08-06T09:39:17;1.03;;;0.30;;
4432;SDS011;2229;48.708;9.706;2023-08-06T09:41:45;1.00;;;0.30;;
4432;SDS011;2229;48.708;9.706;2023-08-06T09:44:17;1.10;;;0.40;;
4432;SDS011;2229;48.708;9.706;2023-08-06T09:46:47;2.60;;;0.40;;
4432;SDS011;2229;48.708;9.706;2023-08-06T09:49:15;1.07;;;0.33;;
4432;SDS011;2229;48.708;9.706;2023-08-06T09:51:44;1.00;;;0.30;;
4432;SDS011;2229;48.708;9.706;2023-08-06T09:54:12;1.00;;;0.40;;
4432;SDS011;2229;48.708;9.706;2023-08-06T09:56:40;5.90;;;2.37;;
4432;SDS011;2229;48.708;9.706;2023-08-06T09:59:09;1.00;;;0.30;;
4432;SDS011;2229;48.708;9.706;2023-08-06T10:01:36;1.10;;;0.50;;
4432;SDS011;2229;48.708;9.706;2023-08-06T10:04:04;5.10;;;0.93;;
4432;SDS011;2229;48.708;9.706;2023-08-06T10:06:34;1.53;;;0.50;;
4432;SDS011;2229;48.708;9.706;2023-08-06T10:09:03;1.10;;;0.40;;
4432;SDS011;2229;48.708;9.706;2023-08-06T10:11:31;1.10;;;0.40;;
4432;SDS011;2229;48.708;9.706;2023-08-06T10:14:00;1.00;;;0.30;;
4432;SDS011;2229;48.708;9.706;2023-08-06T10:16:33;1.10;;;0.40;;
4432;SDS011;2229;48.708;9.706;2023-08-06T10:19:01;1.20;;;0.40;;
4432;SDS011;2229;48.708;9.706;2023-08-06T10:21:30;1.00;;;0.30;;
4432;SDS011;2229;48.708;9.706;2023-08-06T10:23:58;1.00;;;0.30;;
4432;SDS011;2229;48.708;9.706;2023-08-06T10:26:28;1.00;;;0.30;;
4432;SDS011;2229;48.708;9.706;2023-08-06T10:28:56;1.10;;;0.50;;
4432;SDS011;2229;48.708;9.706;2023-08-06T10:34:25;1.00;;;0.30;;
4432;SDS011;2229;48.708;9.706;2023-08-06T10:37:12;1.10;;;0.37;;
4432;SDS011;2229;48.708;9.706;2023-08-06T10:39:47;1.52;;;0.40;;
4432;SDS011;2229;48.708;9.706;2023-08-06T10:42:20;1.00;;;0.30;;
4432;SDS011;2229;48.708;9.706;2023-08-06T10:47:41;1.10;;;0.40;;
4432;SDS011;2229;48.708;9.706;2023-08-06T10:50:11;1.00;;;0.30;;
4432;SDS011;2229;48.708;9.706;2023-08-06T10:52:42;1.00;;;0.30;;
4432;SDS011;2229;48.708;9.706;2023-08-06T10:55:12;1.00;;;0.30;;
4432;SDS011;2229;48.708;9.706;2023-08-06T10:57:41;1.00;;;0.40;;
4432;SDS011;2229;48.708;9.706;2023-08-06T11:00:09;2.43;;;0.40;;
4432;SDS011;2229;48.708;9.706;2023-08-06T11:02:39;1.00;;;0.30;;
4432;SDS011;2229;48.708;9.706;2023-08-06T11:05:07;1.00;;;0.30;;
4432;SDS011;2229;48.708;9.706;2023-08-06T11:07:35;1.00;;;0.30;;
4432;SDS011;2229;48.708;9.706;2023-08-06T11:10:05;1.00;;;0.30;;
4432;SDS011;2229;48.708;9.706;2023-08-06T11:12:34;2.83;;;0.43;;
4432;SDS011;2229;48.708;9.706;2023-08-06T11:15:04;1.00;;;0.30;;
4432;SDS011;2229;48.708;9.706;2023-08-06T11:17:33;1.73;;;0.40;;
4432;SDS011;2229;48.708;9.706;2023-08-06T11:20:02;1.00;;;0.30;;
4432;SDS011;2229;48.708;9.706;2023-08-06T11:22:31;1.10;;;0.40;;
4432;SDS011;2229;48.708;9.706;2023-08-06T11:24:58;1.80;;;0.40;;
4432;SDS011;2229;48.708;9.706;2023-08-06T11:27:29;1.00;;;0.40;;
4432;SDS011;2229;48.708;9.706;2023-08-06T11:29:56;1.00;;;0.40;;
4432;SDS011;2229;48.708;9.706;2023-08-06T11:32:28;1.00;;;0.30;;
4432;SDS011;2229;48.708;9.706;2023-08-06T11:34:56;1.20;;;0.50;;
4432;SDS011;2229;48.708;9.706;2023-08-06T11:37:26;1.00;;;0.33;;
4432;SDS011;2229;48.708;9.706;2023-08-06T11:39:54;1.00;;;0.30;;
4432;SDS011;2229;48.708;9.706;2023-08-06T11:42:21;1.00;;;0.40;;
4432;SDS011;2229;48.708;9.706;2023-08-06T11:44:50;1.03;;;0.40;;
4432;SDS011;2229;48.708;9.706;2023-08-06T11:47:18;1.00;;;0.40;;
4432;SDS011;2229;48.708;9.706;2023-08-06T11:49:47;1.00;;;0.30;;
4432;SDS011;2229;48.708;9.706;2023-08-06T11:52:16;1.00;;;0.40;;
4432;SDS011;2229;48.708;9.706;2023-08-06T11:54:46;1.00;;;0.40;;
4432;SDS011;2229;48.708;9.706;2023-08-06T11:57:15;1.10;;;0.40;;
4432;SDS011;2229;48.708;9.706;2023-08-06T11:59:42;1.00;;;0.40;;
4432;SDS011;2229;48.708;9.706;2023-08-06T12:02:10;1.10;;;0.40;;
4432;SDS011;2229;48.708;9.706;2023-08-06T12:07:26;1.10;;;0.40;;
4432;SDS011;2229;48.708;9.706;2023-08-06T12:09:55;1.05;;;0.40;;
4432;SDS011;2229;48.708;9.706;2023-08-06T12:12:23;1.10;;;0.50;;
4432;SDS011;2229;48.708;9.706;2023-08-06T12:14:50;1.10;;;0.40;;
4432;SDS011;2229;48.708;9.706;2023-08-06T12:17:17;1.10;;;0.40;;
4432;SDS011;2229;48.708;9.706;2023-08-06T12:19:45;3.57;;;0.50;;
4432;SDS011;2229;48.708;9.706;2023-08-06T12:22:16;1.23;;;0.47;;
4432;SDS011;2229;48.708;9.706;2023-08-06T12:24:44;1.30;;;0.40;;
4432;SDS011;2229;48.708;9.706;2023-08-06T12:27:12;1.30;;;0.47;;
4432;SDS011;2229;48.708;9.706;2023-08-06T12:29:42;1.10;;;0.40;;
4432;SDS011;2229;48.708;9.706;2023-08-06T12:32:09;1.30;;;0.57;;
4432;SDS011;2229;48.708;9.706;2023-08-06T12:34:37;1.80;;;0.57;;
4432;SDS011;2229;48.708;9.706;2023-08-06T12:37:05;1.10;;;0.40;;
4432;SDS011;2229;48.708;9.706;2023-08-06T12:39:35;1.83;;;0.80;;
4432;SDS011;2229;48.708;9.706;2023-08-06T12:42:03;1.73;;;0.60;;
4432;SDS011;2229;48.708;9.706;2023-08-06T12:44:31;4.20;;;0.80;;
4432;SDS011;2229;48.708;9.706;2023-08-06T12:46:58;1.20;;;0.50;;
4432;SDS011;2229;48.708;9.706;2023-08-06T12:49:26;1.67;;;0.60;;
4432;SDS011;2229;48.708;9.706;2023-08-06T12:51:54;1.47;;;0.70;;
4432;SDS011;2229;48.708;9.706;2023-08-06T12:54:22;1.43;;;0.57;;
4432;SDS011;2229;48.708;9.706;2023-08-06T12:56:51;1.60;;;0.57;;
4432;SDS011;2229;48.708;9.706;2023-08-06T12:59:18;1.20;;;0.40;;
4432;SDS011;2229;48.708;9.706;2023-08-06T13:01:46;1.30;;;0.60;;
4432;SDS011;2229;48.708;9.706;2023-08-06T13:04:13;1.50;;;0.60;;
4432;SDS011;2229;48.708;9.706;2023-08-06T13:06:40;2.60;;;0.63;;
4432;SDS011;2229;48.708;9.706;2023-08-06T13:09:08;1.50;;;0.70;;
4432;SDS011;2229;48.708;9.706;2023-08-06T13:11:35;1.58;;;0.82;;
4432;SDS011;2229;48.708;9.706;2023-08-06T13:14:05;1.40;;;0.70;;
4432;SDS011;2229;48.708;9.706;2023-08-06T13:16:33;1.70;;;0.70;;
4432;SDS011;2229;48.708;9.706;2023-08-06T13:19:03;1.40;;;0.50;;
4432;SDS011;2229;48.708;9.706;2023-08-06T13:21:32;5.03;;;0.50;;
4432;SDS011;2229;48.708;9.706;2023-08-06T13:24:00;1.40;;;0.50;;
4432;SDS011;2229;48.708;9.706;2023-08-06T13:26:28;1.30;;;0.52;;
4432;SDS011;2229;48.708;9.706;2023-08-06T13:28:56;1.40;;;0.60;;
4432;SDS011;2229;48.708;9.706;2023-08-06T13:31:26;1.97;;;0.60;;
4432;SDS011;2229;48.708;9.706;2023-08-06T13:33:54;1.93;;;0.60;;
4432;SDS011;2229;48.708;9.706;2023-08-06T13:36:23;1.30;;;0.43;;
4432;SDS011;2229;48.708;9.706;2023-08-06T13:38:50;1.23;;;0.50;;
4432;SDS011;2229;48.708;9.706;2023-08-06T13:41:18;1.40;;;0.60;;
4432;SDS011;2229;48.708;9.706;2023-08-06T13:43:45;1.50;;;0.60;;
4432;SDS011;2229;48.708;9.706;2023-08-06T13:46:13;1.40;;;0.60;;
4432;SDS011;2229;48.708;9.706;2023-08-06T13:48:43;1.70;;;1.00;;
4432;SDS011;2229;48.708;9.706;2023-08-06T13:51:11;1.80;;;0.40;;
4432;SDS011;2229;48.708;9.706;2023-08-06T13:53:41;1.30;;;0.70;;
4432;SDS011;2229;48.708;9.706;2023-08-06T13:56:08;1.10;;;0.40;;
4432;SDS011;2229;48.708;9.706;2023-08-06T13:58:36;1.97;;;0.70;;
4432;SDS011;2229;48.708;9.706;2023-08-06T14:01:04;1.10;;;0.47;;
4432;SDS011;2229;48.708;9.706;2023-08-06T14:03:31;1.27;;;0.53;;
4432;SDS011;2229;48.708;9.706;2023-08-06T14:06:00;1.83;;;0.60;;
4432;SDS011;2229;48.708;9.706;2023-08-06T14:08:27;2.80;;;0.77;;
4432;SDS011;2229;48.708;9.706;2023-08-06T14:10:54;1.43;;;0.50;;
4432;SDS011;2229;48.708;9.706;2023-08-06T14:13:22;1.70;;;0.40;;
4432;SDS011;2229;48.708;9.706;2023-08-06T14:15:49;1.23;;;0.40;;
4432;SDS011;2229;48.708;9.706;2023-08-06T14:18:19;1.27;;;0.60;;
4432;SDS011;2229;48.708;9.706;2023-08-06T14:20:46;1.80;;;0.67;;
4432;SDS011;2229;48.708;9.706;2023-08-06T14:23:15;1.17;;;0.50;;
4432;SDS011;2229;48.708;9.706;2023-08-06T14:25:42;1.63;;;0.47;;
4432;SDS011;2229;48.708;9.706;2023-08-06T14:28:10;3.33;;;0.53;;
4432;SDS011;2229;48.708;9.706;2023-08-06T14:30:37;1.17;;;0.43;;
4432;SDS011;2229;48.708;9.706;2023-08-06T14:33:04;1.10;;;0.47;;
4432;SDS011;2229;48.708;9.706;2023-08-06T14:35:31;1.63;;;0.57;;
4432;SDS011;2229;48.708;9.706;2023-08-06T14:37:59;1.93;;;0.50;;
4432;SDS011;2229;48.708;9.706;2023-08-06T14:40:27;1.73;;;0.40;;
4432;SDS011;2229;48.708;9.706;2023-08-06T14:42:59;1.10;;;0.40;;
4432;SDS011;2229;48.708;9.706;2023-08-06T14:45:26;1.30;;;0.40;;
4432;SDS011;2229;48.708;9.706;2023-08-06T14:47:54;1.20;;;0.50;;
4432;SDS011;2229;48.708;9.706;2023-08-06T14:50:22;1.13;;;0.60;;
4432;SDS011;2229;48.708;9.706;2023-08-06T14:52:49;1.20;;;0.43;;
4432;SDS011;2229;48.708;9.706;2023-08-06T14:55:23;2.20;;;0.50;;
4432;SDS011;2229;48.708;9.706;2023-08-06T14:57:52;1.30;;;0.50;;
4432;SDS011;2229;48.708;9.706;2023-08-06T15:00:20;1.10;;;0.50;;
4432;SDS011;2229;48.708;9.706;2023-08-06T15:02:47;1.30;;;0.60;;
4432;SDS011;2229;48.708;9.706;2023-08-06T15:05:15;1.80;;;1.37;;
4432;SDS011;2229;48.708;9.706;2023-08-06T15:07:43;1.10;;;0.40;;
4432;SDS011;2229;48.708;9.706;2023-08-06T15:10:10;1.10;;;0.40;;
4432;SDS011;2229;48.708;9.706;2023-08-06T15:12:37;1.17;;;0.47;;
4432;SDS011;2229;48.708;9.706;2023-08-06T15:15:07;2.17;;;0.63;;
4432;SDS011;2229;48.708;9.706;2023-08-06T15:17:35;1.20;;;0.50;;
4432;SDS011;2229;48.708;9.706;2023-08-06T15:20:03;1.10;;;0.40;;
4432;SDS011;2229;48.708;9.706;2023-08-06T15:22:31;1.40;;;0.60;;
4432;SDS011;2229;48.708;9.706;2023-08-06T15:24:59;1.17;;;0.53;;
4432;SDS011;2229;48.708;9.706;2023-08-06T15:27:27;1.30;;;0.60;;
4432;SDS011;2229;48.708;9.706;2023-08-06T15:29:54;2.90;;;0.60;;
4432;SDS011;2229;48.708;9.706;2023-08-06T15:32:23;1.30;;;0.52;;